Airfield :
LOGIN :

Register | Disclaimer

   EN    FR    IT 

 










Legend :    VFR   Marginal VFR   IFR   Intensive IFR   Very Intensive IFR
Visi :
Ceiling :
>= 8 km
>= 3000ft
5 to 8 km
1000 to 3000 ft
1500m to 5 km
500 to 1000 ft
800 to 1500m
200 to 500 ft
< 800m
< 200 ft
Symbols :   Thunderstorms  Fog  Heavy snow  Heavy precipitations  Wind > 20 kt
SIGMETs :     Misc.  Thunderstorms  Icing  Turbulence  Mountain Waves  Volcanic Ashes






- Airport Elevation : 876 ft
- IATA code : MBX


LJMB - Maribor

CURRENT METAR :
  • 011130Z 14003KT 080V180 9000 FEW018 SCT230 02/M01 Q1019

EXPIRED METARs :
  • 011100Z 15003KT 120V190 8000 FEW018 02/M02 Q1019
  • 011030Z 16004KT 9000 FEW012 01/M02 Q1020
  • 011000Z 14004KT 7000 FEW011 00/M02 Q1020
  • 010930Z VRB02KT 7000 NSC M01/M03 Q1020
  • 010900Z VRB01KT 5000 BR NSC M02/M03 Q1021
  • 010830Z VRB01KT 3000 BR FEW003 M03/M04 Q1021 R32/D

TAF TAF LJMB
Valid from the 01 at 12:00 until the 02 at 12:00 UTC


011100Z 0112/0212 VRB01KT 8000 FEW012
TEMPO 0112/0210 BKN012
PROB30
TEMPO 0120/0209 3000 BR
PROB30
TEMPO 0209/0212 3000 -SN



MET'MAP, your aeronautical weather chart ! - Copyright ORBIFLY December 2007 - Disclaimer

ORBIFLY MET'MAP TEAM :

Programming & Development : Alexandra Zaïnal
Concept & original design : Baudouin d'Aumeries
Assistance for programming : Marc-Olivier Méhu
Technical & hardware support : Manuel Goepfert

Contact : metmap@orbifly.com




SOURCES & CREDITS :

   NOAA